Menu Close Menu
Station Historical Data
Daily Summary for July 17, 2017 Units:  English    Metric   Both
« Previous Day
Next Day »
Daily Weekly Monthly Yearly Custom
  High: Low: Average:
Temperature: 85.9 °F 69.0 °F 76.4 °F
Dew Point: 74.8 °F 64.2 °F 69.5 °F
Humidity: 94% 63% 80%
Wind Speed: 8.2mph 0.0mph 6.9mph
Wind Gust: 8.2mph - -
Wind- - ESE
Pressure: 30.05 in 29.95 in -
Precipitation: 0.00 in    
Historical Graphs
 
 
Tabular Data for July 17, 2017
Time Temperature Dew Point Pressure Wind Wind Speed Wind Gust Humidity Rainfall Rate (Hourly) solar Conditions
00:02 74.4 °F 69.6 °F 29.97 in NNE 8.2 mph   85% 0.00 in WeatherDisplay:10.37 W/m2 SCT
00:07 74.4 °F 69.9 °F 29.96 in NNE 8.2 mph   86% 0.00 in WeatherDisplay:10.37 W/m2 SCT
00:12 74.3 °F 69.8 °F 29.96 in NNE 8.2 mph   86% 0.00 in WeatherDisplay:10.37 W/m2 SCT
00:17 74.2 °F 69.7 °F 29.96 in NNE 8.2 mph   86% 0.00 in WeatherDisplay:10.37 W/m2 SCT
00:23 74.1 °F 69.6 °F 29.95 in NNE 8.2 mph   86% 0.00 in WeatherDisplay:10.37 W/m2 SCT
00:25 74.1 °F 69.6 °F 29.96 in NNE 8.2 mph   86% 0.00 in WeatherDisplay:10.37 W/m2 SCT
00:30 74.0 °F 69.5 °F 29.96 in NNE 8.2 mph   86% 0.00 in WeatherDisplay:10.37 W/m2 SCT
00:35 73.8 °F 69.7 °F 29.97 in NNE 8.2 mph   87% 0.00 in WeatherDisplay:10.37 W/m2 SCT
00:40 73.8 °F 69.7 °F 29.97 in NNE 8.2 mph   87% 0.00 in WeatherDisplay:10.37 W/m2 SCT
00:46 73.7 °F 69.6 °F 29.97 in NNE 8.2 mph   87% 0.00 in WeatherDisplay:10.37 W/m2 SCT
00:51 73.6 °F 69.5 °F 29.98 in NNE 8.2 mph   87% 0.00 in WeatherDisplay:10.37 W/m2 SCT
00:56 73.5 °F 69.7 °F 29.98 in NNE 8.2 mph   88% 0.00 in WeatherDisplay:10.37 W/m2 SCT
01:01 73.5 °F 69.7 °F 29.98 in NNE 8.2 mph   88% 0.00 in WeatherDisplay:10.37 W/m2 SCT
01:06 73.5 °F 69.7 °F 29.99 in NNE 8.2 mph   88% 0.00 in WeatherDisplay:10.37 W/m2 SCT
01:11 73.5 °F 69.7 °F 29.99 in NNE 8.2 mph   88% 0.00 in WeatherDisplay:10.37 W/m2 SCT
01:16 73.7 °F 69.9 °F 29.99 in NNE 8.2 mph   88% 0.00 in WeatherDisplay:10.37 W/m2 SCT
01:21 73.7 °F 69.9 °F 29.99 in NNE 8.2 mph   88% 0.00 in WeatherDisplay:10.37 W/m2 CLR
01:27 73.9 °F 70.5 °F 29.98 in NNE 8.2 mph   89% 0.00 in WeatherDisplay:10.37 W/m2 CLR
01:32 74.0 °F 70.6 °F 29.98 in NNE 8.2 mph   89% 0.00 in WeatherDisplay:10.37 W/m2 BKN
01:37 74.1 °F 70.6 °F 29.98 in NNE 8.2 mph   89% 0.00 in WeatherDisplay:10.37 W/m2 BKN
01:42 74.3 °F 70.5 °F 29.98 in North 8.2 mph   88% 0.00 in WeatherDisplay:10.37 W/m2 BKN
01:47 74.4 °F 70.6 °F 29.98 in North 8.2 mph   88% 0.00 in WeatherDisplay:10.37 W/m2 BKN
01:52 74.4 °F 70.6 °F 29.98 in North 8.2 mph   88% 0.00 in WeatherDisplay:10.37 W/m2 OVC
01:57 74.4 °F 70.6 °F 29.98 in North 8.2 mph   88% 0.00 in WeatherDisplay:10.37 W/m2 OVC
02:02 74.4 °F 70.6 °F 29.98 in North 8.2 mph   88% 0.00 in WeatherDisplay:10.37 W/m2 BKN
02:07 74.5 °F 70.7 °F 29.98 in North 8.2 mph 8.2 mph 88% 0.00 in WeatherDisplay:10.37 W/m2 BKN
02:12 74.5 °F 70.7 °F 29.99 in ENE 8.2 mph 8.2 mph 88% 0.00 in WeatherDisplay:10.37 W/m2 BKN
02:17 73.7 °F 68.9 °F 29.99 in West 8.2 mph   85% 0.00 in WeatherDisplay:10.37 W/m2 BKN
02:22 73.7 °F 68.9 °F 29.99 in West 8.2 mph   85% 0.00 in WeatherDisplay:10.37 W/m2 SCT
02:28 73.7 °F 68.9 °F 29.99 in West 8.2 mph   85% 0.00 in WeatherDisplay:10.37 W/m2 SCT
02:33 73.7 °F 68.9 °F 30.00 in North 8.2 mph   85% 0.00 in WeatherDisplay:10.37 W/m2 SCT
02:38 73.7 °F 68.9 °F 30.00 in North 8.2 mph   85% 0.00 in WeatherDisplay:10.37 W/m2 SCT
02:43 73.7 °F 68.9 °F 30.00 in North 8.2 mph   85% 0.00 in WeatherDisplay:10.37 W/m2 SCT
02:48 73.7 °F 68.9 °F 30.00 in North 8.2 mph   85% 0.00 in WeatherDisplay:10.37 W/m2 SCT
02:53 73.7 °F 68.9 °F 30.00 in North 8.2 mph   85% 0.00 in WeatherDisplay:10.37 W/m2 SCT
02:58 73.7 °F 68.9 °F 30.00 in North 8.2 mph   85% 0.00 in WeatherDisplay:10.37 W/m2 SCT
03:03 73.7 °F 68.9 °F 30.00 in North 8.2 mph   85% 0.00 in WeatherDisplay:10.37 W/m2 SCT
03:08 73.7 °F 68.9 °F 30.00 in North 8.2 mph   85% 0.00 in WeatherDisplay:10.37 W/m2 SCT
03:13 73.7 °F 68.9 °F 29.99 in North 8.2 mph   85% 0.00 in WeatherDisplay:10.37 W/m2 SCT
03:18 73.7 °F 68.9 °F 29.99 in North 8.2 mph   85% 0.00 in WeatherDisplay:10.37 W/m2 SCT
03:23 73.7 °F 68.9 °F 29.99 in North 8.2 mph   85% 0.00 in WeatherDisplay:10.37 W/m2 -RA
03:27 73.7 °F 68.9 °F 29.99 in North 8.2 mph   85% 0.00 in WeatherDisplay:10.37 W/m2 -RA
03:32 73.7 °F 68.9 °F 29.99 in North 8.2 mph   85% 0.00 in WeatherDisplay:10.37 W/m2 +RA
03:37 73.7 °F 68.9 °F 29.99 in North 8.2 mph   85% 0.00 in WeatherDisplay:10.37 W/m2 +RA
03:42 73.7 °F 68.9 °F 29.99 in North 8.2 mph   85% 0.00 in WeatherDisplay:10.37 W/m2 +RA
03:47 73.7 °F 68.9 °F 29.99 in North 8.2 mph   85% 0.00 in WeatherDisplay:10.37 W/m2 +RA
03:52 73.7 °F 68.9 °F 29.98 in North 8.2 mph   85% 0.00 in WeatherDisplay:10.37 W/m2 -RA
03:57 73.7 °F 68.9 °F 29.98 in North 8.2 mph   85% 0.00 in WeatherDisplay:10.37 W/m2 -RA
04:02 73.7 °F 68.9 °F 29.98 in North 8.2 mph   85% 0.00 in WeatherDisplay:10.37 W/m2 -RA
04:07 73.7 °F 68.9 °F 29.98 in North 8.2 mph   85% 0.00 in WeatherDisplay:10.37 W/m2 -RA
04:08 73.7 °F 68.9 °F 29.98 in North 8.2 mph   85% 0.00 in WeatherDisplay:10.37 W/m2 -RA
04:13 73.7 °F 68.9 °F 29.97 in North 8.2 mph   85% 0.00 in WeatherDisplay:10.37 W/m2 -RA
04:18 73.7 °F 68.9 °F 29.96 in North 8.2 mph   85% 0.00 in WeatherDisplay:10.37 W/m2 -RA
04:23 73.7 °F 68.9 °F 29.96 in North 8.2 mph   85% 0.00 in WeatherDisplay:10.37 W/m2 BKN
04:28 73.7 °F 68.9 °F 29.96 in North 8.2 mph   85% 0.00 in WeatherDisplay:10.37 W/m2 BKN
04:34 73.7 °F 68.9 °F 29.95 in North 8.2 mph   85% 0.00 in WeatherDisplay:10.37 W/m2 BKN
04:39 73.7 °F 68.9 °F 29.95 in North 8.2 mph   85% 0.00 in WeatherDisplay:10.37 W/m2 BKN
04:44 73.7 °F 68.9 °F 29.95 in North 8.2 mph   85% 0.00 in WeatherDisplay:10.37 W/m2 BKN
04:49 73.7 °F 68.9 °F 29.96 in North 8.2 mph   85% 0.00 in WeatherDisplay:10.37 W/m2 BKN
04:54 73.7 °F 68.9 °F 29.97 in North 8.2 mph   85% 0.00 in WeatherDisplay:10.37 W/m2 -DZ
04:59 73.7 °F 68.9 °F 29.97 in North 8.2 mph   85% 0.00 in WeatherDisplay:10.37 W/m2 -DZ
05:04 73.7 °F 68.9 °F 29.97 in North 8.2 mph   85% 0.00 in WeatherDisplay:10.37 W/m2 -DZ
05:09 73.7 °F 68.9 °F 29.97 in North 8.2 mph   85% 0.00 in WeatherDisplay:10.37 W/m2 -DZ
05:14 73.7 °F 68.9 °F 29.97 in North 8.2 mph   85% 0.00 in WeatherDisplay:10.37 W/m2 -DZ
05:19 73.7 °F 68.9 °F 29.97 in North 8.2 mph   85% 0.00 in WeatherDisplay:10.37 W/m2 -DZ
05:24 73.7 °F 68.9 °F 29.97 in North 8.2 mph   85% 0.00 in WeatherDisplay:10.37 W/m2 SCT
05:29 73.7 °F 68.9 °F 29.97 in North 8.2 mph   85% 0.00 in WeatherDisplay:10.37 W/m2 SCT
05:34 73.7 °F 68.9 °F 29.97 in North 8.2 mph   85% 0.00 in WeatherDisplay:10.37 W/m2 SCT
05:39 73.7 °F 68.9 °F 29.97 in North 8.2 mph   85% 0.00 in WeatherDisplay:10.37 W/m2 SCT
05:45 73.7 °F 68.9 °F 29.98 in Calm     85% 0.00 in WeatherDisplay:10.37 W/m2 SCT
05:50 73.7 °F 68.9 °F 29.98 in Calm     85% 0.00 in WeatherDisplay:10.37 W/m2 SCT
05:55 73.7 °F 68.9 °F 29.97 in Calm     85% 0.00 in WeatherDisplay:10.37 W/m2 SCT
06:00 73.7 °F 68.9 °F 29.98 in Calm     85% 0.00 in WeatherDisplay:10.37 W/m2 SCT
06:05 73.7 °F 68.9 °F 29.98 in North 8.2 mph   85% 0.00 in WeatherDisplay:10.37 W/m2 FEW
06:10 73.7 °F 68.9 °F 29.98 in Calm     85% 0.00 in WeatherDisplay:10.37 W/m2 FEW
06:15 73.7 °F 68.9 °F 29.98 in Calm     85% 0.00 in WeatherDisplay:10.37 W/m2 FEW
06:20 73.7 °F 68.9 °F 29.98 in North 8.2 mph   85% 0.00 in WeatherDisplay:10.37 W/m2 FEW
06:25 73.7 °F 68.9 °F 29.99 in Calm     85% 0.00 in WeatherDisplay:10.37 W/m2 FEW
06:30 73.7 °F 68.9 °F 29.99 in Calm     85% 0.00 in WeatherDisplay:10.37 W/m2 FEW
06:35 73.7 °F 68.9 °F 30.00 in North 8.2 mph   85% 0.00 in WeatherDisplay:10.37 W/m2 FEW
06:40 73.7 °F 68.9 °F 30.00 in North 8.2 mph   85% 0.00 in WeatherDisplay:10.37 W/m2 FEW
06:45 73.7 °F 68.9 °F 30.00 in North 8.2 mph   85% 0.00 in WeatherDisplay:10.37 W/m2 FEW
06:50 73.7 °F 68.9 °F 30.01 in North 8.2 mph   85% 0.00 in WeatherDisplay:10.37 W/m2 FEW
06:55 73.7 °F 68.9 °F 30.01 in North 8.2 mph   85% 0.00 in WeatherDisplay:10.37 W/m2 FEW
07:00 73.7 °F 68.9 °F 30.00 in North 8.2 mph   85% 0.00 in WeatherDisplay:10.37 W/m2 FEW
07:05 73.7 °F 68.9 °F 30.00 in North 8.2 mph   85% 0.00 in WeatherDisplay:10.37 W/m2 SCT
07:10 73.7 °F 68.9 °F 30.00 in North 8.2 mph   85% 0.00 in WeatherDisplay:10.37 W/m2 SCT
07:15 73.7 °F 68.9 °F 30.00 in North 8.2 mph   85% 0.00 in WeatherDisplay:10.37 W/m2 SCT
07:20 73.7 °F 68.9 °F 30.00 in North 8.2 mph   85% 0.00 in WeatherDisplay:10.37 W/m2 BKN
07:25 73.7 °F 68.9 °F 30.00 in North 8.2 mph   85% 0.00 in WeatherDisplay:10.37 W/m2 BKN
07:30 73.7 °F 68.9 °F 30.01 in North 8.2 mph   85% 0.00 in WeatherDisplay:10.37 W/m2 BKN
07:35 73.7 °F 68.9 °F 30.00 in North 8.2 mph   85% 0.00 in WeatherDisplay:10.37 W/m2 BKN
07:40 73.7 °F 68.9 °F 30.00 in North 8.2 mph   85% 0.00 in WeatherDisplay:10.37 W/m2 BKN
07:45 73.7 °F 68.9 °F 30.01 in North 8.2 mph   85% 0.00 in WeatherDisplay:10.37 W/m2 BKN
07:51 73.7 °F 68.9 °F 30.01 in North 8.2 mph   85% 0.00 in WeatherDisplay:10.37 W/m2 BKN
07:56 73.7 °F 68.9 °F 30.02 in North 8.2 mph   85% 0.00 in WeatherDisplay:10.37 W/m2 BKN
08:01 73.7 °F 68.9 °F 30.02 in North 8.2 mph   85% 0.00 in WeatherDisplay:10.37 W/m2 BKN
08:06 73.7 °F 68.9 °F 30.02 in North 8.2 mph   85% 0.00 in WeatherDisplay:10.37 W/m2 BKN
08:11 73.7 °F 68.9 °F 30.02 in North 8.2 mph   85% 0.00 in WeatherDisplay:10.37 W/m2 BKN
08:16 73.7 °F 68.9 °F 30.02 in North 8.2 mph   85% 0.00 in WeatherDisplay:10.37 W/m2 BKN
08:21 73.7 °F 68.9 °F 30.03 in North 8.2 mph   85% 0.00 in WeatherDisplay:10.37 W/m2 BKN
08:26 73.7 °F 68.9 °F 30.02 in North 8.2 mph   85% 0.00 in WeatherDisplay:10.37 W/m2 BKN
08:31 73.7 °F 68.9 °F 30.02 in North 8.2 mph   85% 0.00 in WeatherDisplay:10.37 W/m2 BKN
08:36 73.7 °F 68.9 °F 30.02 in North 8.2 mph   85% 0.00 in WeatherDisplay:10.37 W/m2 BKN
08:41 69.2 °F 67.4 °F 30.03 in North 8.2 mph   94% 0.00 in WeatherDisplay:10.37 W/m2 BKN
08:46 69.4 °F 67.6 °F 30.03 in North 8.2 mph   94% 0.00 in WeatherDisplay:10.37 W/m2 BKN
08:48 69.4 °F 67.6 °F 30.03 in North 8.2 mph   94% 0.00 in WeatherDisplay:10.37 W/m2 BKN
08:53 69.4 °F 67.6 °F 30.03 in North 8.2 mph   94% 0.00 in WeatherDisplay:10.37 W/m2 BKN
08:58 69.5 °F 67.4 °F 30.03 in North 8.2 mph   93% 0.00 in WeatherDisplay:10.37 W/m2 BKN
09:03 69.7 °F 67.9 °F 30.03 in North 8.2 mph   94% 0.00 in WeatherDisplay:10.37 W/m2 BKN
09:08 70.1 °F 68.3 °F 30.03 in North 8.2 mph   94% 0.00 in WeatherDisplay:10.37 W/m2 BKN
09:13 70.1 °F 68.3 °F 30.03 in North 8.2 mph   94% 0.00 in WeatherDisplay:10.37 W/m2 BKN
09:19 70.4 °F 68.6 °F 30.03 in North 8.2 mph   94% 0.00 in WeatherDisplay:10.37 W/m2 BKN
09:24 70.5 °F 68.4 °F 30.03 in North 8.2 mph   93% 0.00 in WeatherDisplay:10.37 W/m2 SCT
09:29 70.5 °F 68.4 °F 30.03 in North 8.2 mph   93% 0.00 in WeatherDisplay:10.37 W/m2 SCT
09:34 70.6 °F 68.5 °F 30.03 in North 8.2 mph 8.2 mph 93% 0.00 in WeatherDisplay:10.37 W/m2 SCT
09:39 71.0 °F 68.9 °F 30.03 in North 8.2 mph   93% 0.00 in WeatherDisplay:10.37 W/m2 SCT
09:44 71.2 °F 68.8 °F 30.02 in North 8.2 mph   92% 0.00 in WeatherDisplay:10.37 W/m2 SCT
09:49 71.6 °F 69.5 °F 30.02 in North 8.2 mph   93% 0.00 in WeatherDisplay:10.37 W/m2 SCT
09:54 71.9 °F 69.1 °F 30.02 in North 8.2 mph   91% 0.00 in WeatherDisplay:10.37 W/m2 SCT
09:59 72.3 °F 69.5 °F 30.02 in North 8.2 mph 8.2 mph 91% 0.00 in WeatherDisplay:10.37 W/m2 SCT
10:04 72.6 °F 69.5 °F 30.02 in North 8.2 mph 8.2 mph 90% 0.00 in WeatherDisplay:10.37 W/m2 SCT
10:09 73.2 °F 70.1 °F 30.02 in North 8.2 mph   90% 0.00 in WeatherDisplay:10.37 W/m2 SCT
10:14 74.1 °F 70.3 °F 30.03 in North 8.2 mph   88% 0.00 in WeatherDisplay:10.37 W/m2 SCT
10:19 75.1 °F 71.3 °F 30.02 in North 8.2 mph   88% 0.00 in WeatherDisplay:10.37 W/m2 SCT
10:24 75.5 °F 71.0 °F 30.02 in North 8.2 mph   86% 0.00 in WeatherDisplay:10.37 W/m2 BKN
10:29 75.5 °F 69.6 °F 30.02 in North 8.2 mph   82% 0.00 in WeatherDisplay:10.37 W/m2 BKN
10:34 75.6 °F 70.1 °F 30.03 in North 8.2 mph   83% 0.00 in WeatherDisplay:10.37 W/m2 BKN
10:39 75.8 °F 70.3 °F 30.02 in North 8.2 mph   83% 0.00 in WeatherDisplay:10.37 W/m2 BKN
10:44 76.0 °F 70.5 °F 30.02 in North 8.2 mph   83% 0.00 in WeatherDisplay:10.37 W/m2 BKN
10:50 76.3 °F 70.8 °F 30.02 in North 8.2 mph 8.2 mph 83% 0.00 in WeatherDisplay:10.37 W/m2 BKN
10:55 76.4 °F 69.8 °F 30.02 in Calm   1.0 mph 80% 0.00 in WeatherDisplay:10.37 W/m2 BKN
11:00 76.7 °F 70.4 °F 30.02 in Calm   1.0 mph 81% 0.00 in WeatherDisplay:10.37 W/m2 BKN
11:05 77.0 °F 71.1 °F 30.02 in Calm   1.0 mph 82% 0.00 in WeatherDisplay:10.37 W/m2 BKN
11:10 77.0 °F 70.0 °F 30.02 in Calm   1.0 mph 79% 0.00 in WeatherDisplay:10.37 W/m2 BKN
11:15 77.2 °F 70.9 °F 30.02 in Calm     81% 0.00 in WeatherDisplay:10.37 W/m2 BKN
11:20 77.6 °F 71.3 °F 30.01 in Calm   2.0 mph 81% 0.00 in WeatherDisplay:10.37 W/m2 BKN
11:25 77.8 °F 70.4 °F 30.02 in Calm   1.0 mph 78% 0.00 in WeatherDisplay:10.37 W/m2 BKN
11:30 77.9 °F 71.2 °F 30.02 in Calm   2.0 mph 80% 0.00 in WeatherDisplay:10.37 W/m2 BKN
11:35 78.0 °F 71.0 °F 30.02 in Calm   1.0 mph 79% 0.00 in WeatherDisplay:10.37 W/m2 BKN
11:40 77.9 °F 70.9 °F 30.01 in Calm   1.0 mph 79% 0.00 in WeatherDisplay:10.37 W/m2 BKN
11:45 77.8 °F 70.8 °F 30.01 in West 8.2 mph 8.2 mph 79% 0.00 in WeatherDisplay:10.37 W/m2 BKN
11:46 77.8 °F 70.8 °F 30.01 in SSW 8.2 mph 8.2 mph 79% 0.00 in WeatherDisplay:10.37 W/m2 BKN
11:51 78.0 °F 70.6 °F 30.01 in NNW 8.2 mph 8.2 mph 78% 0.00 in WeatherDisplay:10.37 W/m2 BKN
11:56 78.4 °F 71.0 °F 30.01 in NNW 8.2 mph 8.2 mph 78% 0.00 in WeatherDisplay:10.37 W/m2 BKN
12:01 78.6 °F 70.4 °F 30.02 in SSW 8.2 mph   76% 0.00 in WeatherDisplay:10.37 W/m2 BKN
12:06 78.8 °F 71.7 °F 30.02 in West 8.2 mph   79% 0.00 in WeatherDisplay:10.37 W/m2 BKN
12:11 79.3 °F 71.5 °F 30.01 in North 8.2 mph   77% 0.00 in WeatherDisplay:10.37 W/m2 BKN
12:13 79.4 °F 71.6 °F 30.02 in North 8.2 mph   77% 0.00 in WeatherDisplay:10.37 W/m2 BKN
12:18 79.6 °F 71.4 °F 30.02 in NNW 8.2 mph 8.2 mph 76% 0.00 in WeatherDisplay:10.37 W/m2 BKN
12:23 79.6 °F 71.4 °F 30.02 in North 8.2 mph   76% 0.00 in WeatherDisplay:10.37 W/m2 BKN
12:28 79.8 °F 71.6 °F 30.02 in SW 8.2 mph   76% 0.00 in WeatherDisplay:10.37 W/m2 BKN
12:33 79.9 °F 71.7 °F 30.02 in NW 8.2 mph 8.2 mph 76% 0.00 in WeatherDisplay:10.37 W/m2 BKN
12:36 80.2 °F 71.6 °F 30.02 in NNW 8.2 mph   75% 0.00 in WeatherDisplay:10.37 W/m2 BKN
12:41 80.9 °F 71.8 °F 30.02 in North 8.2 mph 8.2 mph 74% 0.00 in WeatherDisplay:10.37 W/m2 BKN
12:46 81.3 °F 71.4 °F 30.01 in ENE 8.2 mph 8.2 mph 72% 0.00 in WeatherDisplay:10.37 W/m2 BKN
12:51 81.6 °F 72.1 °F 30.02 in NE 8.2 mph   73% 0.00 in WeatherDisplay:10.37 W/m2 BKN
12:56 82.3 °F 73.6 °F 30.02 in East 8.2 mph 8.2 mph 75% 0.00 in WeatherDisplay:10.37 W/m2 BKN
13:01 82.7 °F 72.3 °F 30.01 in WSW 8.2 mph   71% 0.00 in WeatherDisplay:10.37 W/m2 BKN
13:06 83.4 °F 73.0 °F 30.01 in WNW 8.2 mph 8.2 mph 71% 0.00 in WeatherDisplay:10.37 W/m2 BKN
13:11 84.1 °F 72.4 °F 30.01 in WSW 8.2 mph 8.2 mph 68% 0.00 in WeatherDisplay:10.37 W/m2 BKN
13:16 84.4 °F 72.2 °F 30.01 in East 8.2 mph 8.2 mph 67% 0.00 in WeatherDisplay:10.37 W/m2 BKN
13:22 84.5 °F 72.8 °F 30.01 in ENE 8.2 mph 8.2 mph 68% 0.00 in WeatherDisplay:10.37 W/m2 BKN
13:27 84.8 °F 73.9 °F 30.01 in North 8.2 mph 8.2 mph 70% 0.00 in WeatherDisplay:10.37 W/m2 BKN
13:32 84.8 °F 73.1 °F 30.02 in North 8.2 mph   68% 0.00 in WeatherDisplay:10.37 W/m2 BKN
13:33 84.7 °F 73.4 °F 30.02 in North 8.2 mph   69% 0.00 in WeatherDisplay:10.37 W/m2 BKN
13:38 84.7 °F 73.4 °F 30.02 in ENE 8.2 mph 8.2 mph 69% 0.00 in WeatherDisplay:10.37 W/m2 BKN
13:43 84.5 °F 73.6 °F 30.01 in ENE 8.2 mph 8.2 mph 70% 0.00 in WeatherDisplay:10.37 W/m2 BKN
13:48 84.4 °F 72.2 °F 30.01 in East 8.2 mph   67% 0.00 in WeatherDisplay:10.37 W/m2 BKN
13:49 84.5 °F 72.8 °F 30.01 in East 8.2 mph   68% 0.00 in WeatherDisplay:10.37 W/m2 BKN
13:55 84.7 °F 73.4 °F 30.01 in West 8.2 mph   69% 0.00 in WeatherDisplay:10.37 W/m2 BKN
14:00 85.0 °F 73.7 °F 30.01 in Calm   1.0 mph 69% 0.00 in WeatherDisplay:10.37 W/m2 BKN
14:05 85.1 °F 73.3 °F 30.00 in Calm   3.0 mph 68% 0.00 in WeatherDisplay:10.37 W/m2 BKN
14:10 85.3 °F 72.7 °F 30.00 in Calm   1.0 mph 66% 0.00 in WeatherDisplay:10.37 W/m2 BKN
14:15 85.5 °F 72.8 °F 30.00 in Calm   1.0 mph 66% 0.00 in WeatherDisplay:10.37 W/m2 BKN
14:20 85.6 °F 73.8 °F 30.00 in SSW 8.2 mph   68% 0.00 in WeatherDisplay:10.37 W/m2 BKN
14:25 85.9 °F 74.5 °F 30.00 in NW 8.2 mph 8.2 mph 69% 0.00 in WeatherDisplay:10.37 W/m2 BKN
14:30 85.7 °F 73.0 °F 30.00 in Calm   1.0 mph 66% 0.00 in WeatherDisplay:10.37 W/m2 BKN
14:35 85.6 °F 73.4 °F 30.00 in East 8.2 mph   67% 0.00 in WeatherDisplay:10.37 W/m2 BKN
14:40 85.9 °F 72.3 °F 30.00 in ENE 8.2 mph   64% 0.00 in WeatherDisplay:10.37 W/m2 BKN
14:45 85.6 °F 72.5 °F 29.99 in South 8.2 mph 8.2 mph 65% 0.00 in WeatherDisplay:10.37 W/m2 BKN
14:50 85.3 °F 74.0 °F 29.99 in WSW 8.2 mph   69% 0.00 in WeatherDisplay:10.37 W/m2 BKN
14:55 85.2 °F 73.4 °F 29.99 in NNW 8.2 mph   68% 0.00 in WeatherDisplay:10.37 W/m2 BKN
15:00 85.1 °F 73.3 °F 29.99 in NNE 8.2 mph   68% 0.00 in WeatherDisplay:10.37 W/m2 BKN
15:05 84.9 °F 73.2 °F 29.99 in West 8.2 mph   68% 0.00 in WeatherDisplay:10.37 W/m2 BKN
15:10 84.8 °F 71.7 °F 29.98 in NW 8.2 mph   65% 0.00 in WeatherDisplay:10.37 W/m2 BKN
15:15 84.7 °F 72.5 °F 29.98 in ENE 8.2 mph 8.2 mph 67% 0.00 in WeatherDisplay:10.37 W/m2 BKN
15:20 84.6 °F 73.7 °F 29.99 in North 8.2 mph 8.2 mph 70% 0.00 in WeatherDisplay:10.37 W/m2 BKN
15:25 84.6 °F 73.7 °F 29.98 in North 8.2 mph   70% 0.00 in WeatherDisplay:10.37 W/m2 BKN
15:30 84.7 °F 73.0 °F 29.98 in ESE 8.2 mph   68% 0.00 in WeatherDisplay:10.37 W/m2 BKN
15:35 84.7 °F 71.6 °F 29.98 in SSW 8.2 mph   65% 0.00 in WeatherDisplay:10.37 W/m2 BKN
15:41 84.7 °F 71.2 °F 29.97 in WSW 8.2 mph   64% 0.00 in WeatherDisplay:10.37 W/m2 BKN
15:46 84.4 °F 71.8 °F 29.97 in WSW 8.2 mph   66% 0.00 in WeatherDisplay:10.37 W/m2 BKN
15:51 84.3 °F 72.1 °F 29.97 in WSW 8.2 mph   67% 0.00 in WeatherDisplay:10.37 W/m2 BKN
15:56 84.2 °F 72.5 °F 29.97 in SW 8.2 mph   68% 0.00 in WeatherDisplay:10.37 W/m2 BKN
16:01 84.2 °F 72.9 °F 29.96 in SW 8.2 mph   69% 0.00 in WeatherDisplay:10.37 W/m2 BKN
16:06 84.1 °F 72.0 °F 29.96 in West 8.2 mph   67% 0.00 in WeatherDisplay:10.37 W/m2 BKN
16:11 84.0 °F 71.9 °F 29.96 in West 8.2 mph   67% 0.00 in WeatherDisplay:10.37 W/m2 BKN
16:16 84.4 °F 71.8 °F 29.96 in West 8.2 mph   66% 0.00 in WeatherDisplay:10.37 W/m2 BKN
16:20 84.5 °F 71.4 °F 29.96 in West 8.2 mph   65% 0.00 in WeatherDisplay:10.37 W/m2 BKN
16:25 84.7 °F 73.4 °F 29.96 in West 8.2 mph   69% 0.00 in WeatherDisplay:10.37 W/m2 BKN
16:30 84.9 °F 72.3 °F 29.96 in NW 8.2 mph   66% 0.00 in WeatherDisplay:10.37 W/m2 BKN
16:35 84.9 °F 72.7 °F 29.96 in NW 8.2 mph   67% 0.00 in WeatherDisplay:10.37 W/m2 BKN
16:40 84.6 °F 72.4 °F 29.96 in NW 8.2 mph   67% 0.00 in WeatherDisplay:10.37 W/m2 BKN
16:45 84.5 °F 72.8 °F 29.97 in NNW 8.2 mph   68% 0.00 in WeatherDisplay:10.37 W/m2 BKN
16:50 84.5 °F 72.8 °F 29.97 in NW 8.2 mph   68% 0.00 in WeatherDisplay:10.37 W/m2 BKN
16:55 84.3 °F 73.0 °F 29.96 in NW 8.2 mph   69% 0.00 in WeatherDisplay:10.37 W/m2 BKN
17:00 84.1 °F 72.8 °F 29.96 in NW 8.2 mph   69% 0.00 in WeatherDisplay:10.37 W/m2 BKN
17:05 84.0 °F 74.0 °F 29.96 in NE 8.2 mph   72% 0.00 in WeatherDisplay:10.37 W/m2 BKN
17:10 84.0 °F 74.8 °F 29.96 in NE 8.2 mph   74% 0.00 in WeatherDisplay:10.37 W/m2 BKN
17:15 84.1 °F 74.1 °F 29.95 in NE 8.2 mph   72% 0.00 in WeatherDisplay:10.37 W/m2 BKN
17:20 84.0 °F 73.2 °F 29.95 in NE 8.2 mph   70% 0.00 in WeatherDisplay:10.37 W/m2 BKN
17:25 84.0 °F 74.4 °F 29.95 in NE 8.2 mph   73% 0.00 in WeatherDisplay:10.37 W/m2 BKN
17:30 84.1 °F 74.1 °F 29.96 in NE 8.2 mph   72% 0.00 in WeatherDisplay:10.37 W/m2 BKN
17:36 83.7 °F 73.7 °F 29.96 in NE 8.2 mph   72% 0.00 in WeatherDisplay:10.37 W/m2 BKN
17:41 83.6 °F 74.0 °F 29.96 in NE 8.2 mph   73% 0.00 in WeatherDisplay:10.37 W/m2 BKN
17:46 83.7 °F 72.9 °F 29.96 in NE 8.2 mph   70% 0.00 in WeatherDisplay:10.37 W/m2 BKN
17:51 83.9 °F 73.9 °F 29.96 in NE 8.2 mph   72% 0.00 in WeatherDisplay:10.37 W/m2 BKN
17:56 84.0 °F 73.6 °F 29.96 in NE 8.2 mph   71% 0.00 in WeatherDisplay:10.37 W/m2 BKN
18:01 84.1 °F 74.1 °F 29.96 in NE 8.2 mph   72% 0.00 in WeatherDisplay:10.37 W/m2 BKN
18:06 84.0 °F 73.6 °F 29.96 in NE 8.2 mph   71% 0.00 in WeatherDisplay:10.37 W/m2 BKN
18:11 83.6 °F 73.6 °F 29.97 in NE 8.2 mph 8.2 mph 72% 0.00 in WeatherDisplay:10.37 W/m2 BKN
18:12 83.5 °F 73.5 °F 29.97 in NE 8.2 mph   72% 0.00 in WeatherDisplay:10.37 W/m2 BKN
18:17 82.9 °F 73.4 °F 29.97 in NE 8.2 mph   73% 0.00 in WeatherDisplay:10.37 W/m2 BKN
18:22 82.3 °F 72.4 °F 29.97 in NE 8.2 mph   72% 0.00 in WeatherDisplay:10.37 W/m2 BKN
18:27 81.9 °F 72.4 °F 29.97 in NE 8.2 mph   73% 0.00 in WeatherDisplay:10.37 W/m2 BKN
18:32 81.7 °F 72.2 °F 29.97 in NE 8.2 mph   73% 0.00 in WeatherDisplay:10.37 W/m2 BKN
18:37 81.6 °F 72.5 °F 29.98 in NE 8.2 mph   74% 0.00 in WeatherDisplay:10.37 W/m2 BKN
18:42 81.5 °F 72.8 °F 29.98 in NE 8.2 mph   75% 0.00 in WeatherDisplay:10.37 W/m2 BKN
18:47 81.4 °F 72.3 °F 29.98 in NE 8.2 mph   74% 0.00 in WeatherDisplay:10.37 W/m2 BKN
18:52 81.3 °F 73.0 °F 29.98 in NE 8.2 mph   76% 0.00 in WeatherDisplay:10.37 W/m2 BKN
18:58 80.9 °F 72.2 °F 29.99 in West 8.2 mph 8.2 mph 75% 0.00 in WeatherDisplay:10.37 W/m2 BKN
19:03 79.9 °F 68.0 °F 29.99 in WNW 8.2 mph 8.2 mph 67% 0.00 in WeatherDisplay:10.37 W/m2 BKN
19:08 78.7 °F 65.0 °F 29.99 in NE 8.2 mph 8.2 mph 63% 0.00 in WeatherDisplay:10.37 W/m2 BKN
19:13 77.8 °F 64.6 °F 30.00 in WNW 8.2 mph 8.2 mph 64% 0.00 in WeatherDisplay:10.37 W/m2 BKN
19:19 77.3 °F 64.2 °F 30.00 in WNW 8.2 mph 8.2 mph 64% 0.00 in WeatherDisplay:10.37 W/m2 BKN
19:24 76.9 °F 64.7 °F 30.01 in WNW 8.2 mph   66% 0.00 in WeatherDisplay:10.37 W/m2 BKN
19:29 76.4 °F 64.6 °F 30.01 in West 8.2 mph 8.2 mph 67% 0.00 in WeatherDisplay:10.37 W/m2 BKN
19:34 75.8 °F 65.7 °F 30.01 in NW 8.2 mph 8.2 mph 71% 0.00 in WeatherDisplay:10.37 W/m2 BKN
19:39 75.3 °F 65.6 °F 30.01 in NW 8.2 mph   72% 0.00 in WeatherDisplay:10.37 W/m2 BKN
19:44 74.8 °F 66.0 °F 30.01 in WNW 8.2 mph   74% 0.00 in WeatherDisplay:10.37 W/m2 BKN
19:49 74.5 °F 65.7 °F 30.01 in WNW 8.2 mph   74% 0.00 in WeatherDisplay:10.37 W/m2 BKN
19:54 74.3 °F 65.5 °F 30.01 in WNW 8.2 mph   74% 0.00 in WeatherDisplay:10.37 W/m2 OVC
19:59 74.2 °F 64.6 °F 30.00 in West 8.2 mph   72% 0.00 in WeatherDisplay:10.37 W/m2 OVC
20:04 74.1 °F 64.5 °F 29.99 in West 8.2 mph   72% 0.00 in WeatherDisplay:10.37 W/m2 OVC
20:10 74.1 °F 64.5 °F 29.99 in West 8.2 mph   72% 0.00 in WeatherDisplay:10.37 W/m2 OVC
20:15 74.0 °F 64.4 °F 29.99 in SW 8.2 mph   72% 0.00 in WeatherDisplay:10.37 W/m2 OVC
20:20 74.0 °F 64.8 °F 29.99 in Calm     73% 0.00 in WeatherDisplay:10.37 W/m2 OVC
20:25 73.8 °F 64.2 °F 30.00 in Calm     72% 0.00 in WeatherDisplay:10.37 W/m2 OVC
20:30 73.7 °F 64.5 °F 30.01 in Calm     73% 0.00 in WeatherDisplay:10.37 W/m2 OVC
20:35 73.6 °F 64.8 °F 30.01 in Calm   1.0 mph 74% 0.00 in WeatherDisplay:10.37 W/m2 OVC
20:40 73.6 °F 64.8 °F 30.01 in Calm     74% 0.00 in WeatherDisplay:10.37 W/m2 OVC
20:45 73.5 °F 65.1 °F 30.01 in Calm   1.0 mph 75% 0.00 in WeatherDisplay:10.37 W/m2 OVC
20:50 73.4 °F 65.0 °F 30.01 in Calm     75% 0.00 in WeatherDisplay:10.37 W/m2 OVC
20:55 73.3 °F 65.2 °F 30.01 in Calm     76% 0.00 in WeatherDisplay:10.37 W/m2 OVC
21:00 73.1 °F 65.5 °F 30.01 in Calm     77% 0.00 in WeatherDisplay:10.37 W/m2 OVC
21:05 72.9 °F 65.3 °F 30.01 in North 8.2 mph   77% 0.00 in WeatherDisplay:10.37 W/m2 OVC
21:10 72.7 °F 65.5 °F 30.01 in Calm     78% 0.00 in WeatherDisplay:10.37 W/m2 OVC
21:15 72.5 °F 65.6 °F 30.02 in Calm     79% 0.00 in WeatherDisplay:10.37 W/m2 OVC
21:20 72.3 °F 65.8 °F 30.02 in Calm   1.0 mph 80% 0.00 in WeatherDisplay:10.37 W/m2 BKN
21:25 72.1 °F 65.6 °F 30.02 in Calm   1.0 mph 80% 0.00 in WeatherDisplay:10.37 W/m2 BKN
21:30 71.9 °F 65.4 °F 30.01 in Calm     80% 0.00 in WeatherDisplay:10.37 W/m2 BKN
21:35 71.8 °F 65.7 °F 30.01 in NNE 8.2 mph   81% 0.00 in WeatherDisplay:10.37 W/m2 BKN
21:40 71.7 °F 65.9 °F 30.02 in Calm     82% 0.00 in WeatherDisplay:10.37 W/m2 BKN
21:45 71.6 °F 65.8 °F 30.03 in Calm   1.0 mph 82% 0.00 in WeatherDisplay:10.37 W/m2 BKN
21:50 71.5 °F 65.7 °F 30.03 in Calm   1.0 mph 82% 0.00 in WeatherDisplay:10.37 W/m2 BKN
21:55 71.4 °F 65.6 °F 30.02 in Calm     82% 0.00 in WeatherDisplay:10.37 W/m2 BKN
22:00 71.3 °F 65.9 °F 30.03 in NNE 8.2 mph   83% 0.00 in WeatherDisplay:10.37 W/m2 BKN
22:05 71.2 °F 65.8 °F 30.04 in Calm     83% 0.00 in WeatherDisplay:10.37 W/m2 BKN
22:10 71.1 °F 65.7 °F 30.04 in Calm     83% 0.00 in WeatherDisplay:10.37 W/m2 BKN
22:15 71.0 °F 65.9 °F 30.04 in Calm     84% 0.00 in WeatherDisplay:10.37 W/m2 BKN
22:20 70.8 °F 65.4 °F 30.03 in Calm     83% 0.00 in WeatherDisplay:10.37 W/m2 BKN
22:25 70.7 °F 65.6 °F 30.03 in NNE 8.2 mph   84% 0.00 in WeatherDisplay:10.37 W/m2 BKN
22:30 70.5 °F 65.4 °F 30.03 in NNE 8.2 mph   84% 0.00 in WeatherDisplay:10.37 W/m2 BKN
22:31 70.5 °F 65.4 °F 30.03 in NNE 8.2 mph   84% 0.00 in WeatherDisplay:10.37 W/m2 BKN
22:36 70.4 °F 65.3 °F 30.03 in NNE 8.2 mph   84% 0.00 in WeatherDisplay:10.37 W/m2 BKN
22:41 70.3 °F 65.2 °F 30.03 in NNE 8.2 mph   84% 0.00 in WeatherDisplay:10.37 W/m2 BKN
22:46 70.2 °F 65.5 °F 30.03 in NNE 8.2 mph   85% 0.00 in WeatherDisplay:10.37 W/m2 BKN
22:51 70.0 °F 65.3 °F 30.04 in NNE 8.2 mph   85% 0.00 in WeatherDisplay:10.37 W/m2 BKN
22:56 69.9 °F 65.5 °F 30.04 in NNE 8.2 mph   86% 0.00 in WeatherDisplay:10.37 W/m2 BKN
23:01 69.8 °F 65.4 °F 30.04 in NNE 8.2 mph   86% 0.00 in WeatherDisplay:10.37 W/m2 BKN
23:06 69.7 °F 65.3 °F 30.04 in NNE 8.2 mph   86% 0.00 in WeatherDisplay:10.37 W/m2 BKN
23:11 69.6 °F 65.2 °F 30.05 in NNE 8.2 mph   86% 0.00 in WeatherDisplay:10.37 W/m2 BKN
23:16 69.5 °F 65.1 °F 30.05 in NNE 8.2 mph   86% 0.00 in WeatherDisplay:10.37 W/m2 BKN
23:21 69.5 °F 65.5 °F 30.04 in NNE 8.2 mph   87% 0.00 in WeatherDisplay:10.37 W/m2 BKN
23:27 69.4 °F 65.4 °F 30.04 in NNE 8.2 mph   87% 0.00 in WeatherDisplay:10.37 W/m2 BKN
23:32 69.3 °F 65.3 °F 30.04 in NNE 8.2 mph   87% 0.00 in WeatherDisplay:10.37 W/m2 BKN
23:37 69.3 °F 65.3 °F 30.04 in NNE 8.2 mph   87% 0.00 in WeatherDisplay:10.37 W/m2 BKN
23:42 69.2 °F 65.2 °F 30.04 in NNE 8.2 mph   87% 0.00 in WeatherDisplay:10.37 W/m2 BKN
23:47 69.1 °F 65.1 °F 30.04 in NNE 8.2 mph   87% 0.00 in WeatherDisplay:10.37 W/m2 BKN
23:52 69.0 °F 64.6 °F 30.04 in NNE 8.2 mph   86% 0.00 in WeatherDisplay:10.37 W/m2 BKN
23:57 69.0 °F 64.6 °F 30.04 in NNE 8.2 mph   86% 0.00 in WeatherDisplay:10.37 W/m2 BKN
Piedmont Bend
Compliments of Weather Underground - 4 mb